sensor_id;sensor_type;location;lat;lon;timestamp;P1;durP1;ratioP1;P2;durP2;ratioP2
13343;SDS011;6741;48.964;9.406;2023-05-10T00:02:00;1.60;;;1.50;;
13343;SDS011;6741;48.964;9.406;2023-05-10T00:04:28;1.70;;;1.60;;
13343;SDS011;6741;48.964;9.406;2023-05-10T00:06:55;1.33;;;1.23;;
13343;SDS011;6741;48.964;9.406;2023-05-10T00:09:21;1.23;;;1.17;;
13343;SDS011;6741;48.964;9.406;2023-05-10T00:11:50;1.93;;;1.70;;
13343;SDS011;6741;48.964;9.406;2023-05-10T00:14:17;0.97;;;0.97;;
13343;SDS011;6741;48.964;9.406;2023-05-10T00:16:44;4.93;;;1.10;;
13343;SDS011;6741;48.964;9.406;2023-05-10T00:19:11;1.30;;;1.20;;
13343;SDS011;6741;48.964;9.406;2023-05-10T00:21:38;2.53;;;1.50;;
13343;SDS011;6741;48.964;9.406;2023-05-10T00:24:05;1.60;;;1.50;;
13343;SDS011;6741;48.964;9.406;2023-05-10T00:26:32;1.70;;;1.60;;
13343;SDS011;6741;48.964;9.406;2023-05-10T00:29:00;1.50;;;1.40;;
13343;SDS011;6741;48.964;9.406;2023-05-10T00:31:27;2.57;;;1.67;;
13343;SDS011;6741;48.964;9.406;2023-05-10T00:33:54;1.13;;;1.13;;
13343;SDS011;6741;48.964;9.406;2023-05-10T00:36:21;1.10;;;1.00;;
13343;SDS011;6741;48.964;9.406;2023-05-10T00:38:48;1.10;;;1.10;;
13343;SDS011;6741;48.964;9.406;2023-05-10T00:41:15;1.83;;;1.20;;
13343;SDS011;6741;48.964;9.406;2023-05-10T00:43:42;0.90;;;0.90;;
13343;SDS011;6741;48.964;9.406;2023-05-10T00:46:10;0.90;;;0.90;;
13343;SDS011;6741;48.964;9.406;2023-05-10T00:48:38;1.53;;;1.13;;
13343;SDS011;6741;48.964;9.406;2023-05-10T00:51:05;0.87;;;0.80;;
13343;SDS011;6741;48.964;9.406;2023-05-10T00:53:32;1.10;;;1.07;;
13343;SDS011;6741;48.964;9.406;2023-05-10T00:56:00;2.93;;;0.90;;
13343;SDS011;6741;48.964;9.406;2023-05-10T00:58:28;1.57;;;0.90;;
13343;SDS011;6741;48.964;9.406;2023-05-10T01:00:56;1.00;;;1.00;;
13343;SDS011;6741;48.964;9.406;2023-05-10T01:03:25;0.90;;;0.90;;
13343;SDS011;6741;48.964;9.406;2023-05-10T01:05:52;1.00;;;1.00;;
13343;SDS011;6741;48.964;9.406;2023-05-10T01:08:19;1.43;;;1.10;;
13343;SDS011;6741;48.964;9.406;2023-05-10T01:10:46;1.10;;;1.00;;
13343;SDS011;6741;48.964;9.406;2023-05-10T01:13:14;2.00;;;1.33;;
13343;SDS011;6741;48.964;9.406;2023-05-10T01:15:51;1.40;;;1.30;;
13343;SDS011;6741;48.964;9.406;2023-05-10T01:18:19;1.30;;;1.20;;
13343;SDS011;6741;48.964;9.406;2023-05-10T01:20:50;0.97;;;0.97;;
13343;SDS011;6741;48.964;9.406;2023-05-10T01:26:19;1.10;;;1.00;;
13343;SDS011;6741;48.964;9.406;2023-05-10T01:29:28;1.10;;;1.10;;
13343;SDS011;6741;48.964;9.406;2023-05-10T01:32:19;1.60;;;1.50;;
13343;SDS011;6741;48.964;9.406;2023-05-10T01:34:54;1.63;;;1.53;;
13343;SDS011;6741;48.964;9.406;2023-05-10T01:37:28;1.70;;;1.60;;
13343;SDS011;6741;48.964;9.406;2023-05-10T01:40:03;1.80;;;1.70;;
13343;SDS011;6741;48.964;9.406;2023-05-10T01:42:36;1.80;;;1.70;;
13343;SDS011;6741;48.964;9.406;2023-05-10T01:45:11;1.80;;;1.70;;
13343;SDS011;6741;48.964;9.406;2023-05-10T01:47:44;1.90;;;1.80;;
13343;SDS011;6741;48.964;9.406;2023-05-10T01:50:17;2.10;;;1.90;;
13343;SDS011;6741;48.964;9.406;2023-05-10T01:52:47;1.60;;;1.50;;
13343;SDS011;6741;48.964;9.406;2023-05-10T01:55:18;2.30;;;2.10;;
13343;SDS011;6741;48.964;9.406;2023-05-10T01:57:50;2.20;;;2.00;;
13343;SDS011;6741;48.964;9.406;2023-05-10T02:00:23;2.23;;;2.03;;
13343;SDS011;6741;48.964;9.406;2023-05-10T02:02:52;2.20;;;2.00;;
13343;SDS011;6741;48.964;9.406;2023-05-10T02:05:20;2.27;;;2.10;;
13343;SDS011;6741;48.964;9.406;2023-05-10T02:07:49;2.13;;;2.03;;
13343;SDS011;6741;48.964;9.406;2023-05-10T02:10:16;2.70;;;1.97;;
13343;SDS011;6741;48.964;9.406;2023-05-10T02:12:46;2.30;;;2.20;;
13343;SDS011;6741;48.964;9.406;2023-05-10T02:15:17;2.63;;;2.43;;
13343;SDS011;6741;48.964;9.406;2023-05-10T02:17:46;2.57;;;2.37;;
13343;SDS011;6741;48.964;9.406;2023-05-10T02:20:17;2.70;;;2.50;;
13343;SDS011;6741;48.964;9.406;2023-05-10T02:22:47;2.90;;;2.70;;
13343;SDS011;6741;48.964;9.406;2023-05-10T02:25:17;2.70;;;2.50;;
13343;SDS011;6741;48.964;9.406;2023-05-10T02:27:45;2.53;;;2.33;;
13343;SDS011;6741;48.964;9.406;2023-05-10T02:30:13;3.00;;;2.80;;
13343;SDS011;6741;48.964;9.406;2023-05-10T02:32:41;3.40;;;3.20;;
13343;SDS011;6741;48.964;9.406;2023-05-10T02:35:10;2.30;;;2.20;;
13343;SDS011;6741;48.964;9.406;2023-05-10T02:37:39;3.30;;;3.00;;
13343;SDS011;6741;48.964;9.406;2023-05-10T02:40:07;3.10;;;2.90;;
13343;SDS011;6741;48.964;9.406;2023-05-10T02:42:37;3.20;;;3.00;;
13343;SDS011;6741;48.964;9.406;2023-05-10T02:45:07;3.30;;;3.00;;
13343;SDS011;6741;48.964;9.406;2023-05-10T02:47:37;3.40;;;3.07;;
13343;SDS011;6741;48.964;9.406;2023-05-10T02:50:05;3.07;;;2.87;;
13343;SDS011;6741;48.964;9.406;2023-05-10T02:52:36;4.03;;;2.70;;
13343;SDS011;6741;48.964;9.406;2023-05-10T02:55:10;3.20;;;2.83;;
13343;SDS011;6741;48.964;9.406;2023-05-10T02:57:41;3.23;;;2.67;;
13343;SDS011;6741;48.964;9.406;2023-05-10T03:00:14;3.17;;;2.90;;
13343;SDS011;6741;48.964;9.406;2023-05-10T03:02:41;2.97;;;2.77;;
13343;SDS011;6741;48.964;9.406;2023-05-10T03:05:08;3.17;;;2.97;;
13343;SDS011;6741;48.964;9.406;2023-05-10T03:07:35;2.90;;;2.70;;
13343;SDS011;6741;48.964;9.406;2023-05-10T03:10:04;3.10;;;2.80;;
13343;SDS011;6741;48.964;9.406;2023-05-10T03:12:36;3.53;;;2.60;;
13343;SDS011;6741;48.964;9.406;2023-05-10T03:15:17;4.43;;;2.97;;
13343;SDS011;6741;48.964;9.406;2023-05-10T03:18:01;3.47;;;3.17;;
13343;SDS011;6741;48.964;9.406;2023-05-10T03:20:34;3.70;;;3.40;;
13343;SDS011;6741;48.964;9.406;2023-05-10T03:23:04;3.57;;;3.33;;
13343;SDS011;6741;48.964;9.406;2023-05-10T03:25:35;4.23;;;3.33;;
13343;SDS011;6741;48.964;9.406;2023-05-10T03:28:03;3.90;;;3.60;;
13343;SDS011;6741;48.964;9.406;2023-05-10T03:30:31;3.90;;;3.60;;
13343;SDS011;6741;48.964;9.406;2023-05-10T03:33:03;4.30;;;3.90;;
13343;SDS011;6741;48.964;9.406;2023-05-10T03:35:31;4.67;;;4.27;;
13343;SDS011;6741;48.964;9.406;2023-05-10T03:37:58;4.77;;;4.37;;
13343;SDS011;6741;48.964;9.406;2023-05-10T03:40:25;4.17;;;3.87;;
13343;SDS011;6741;48.964;9.406;2023-05-10T03:42:55;3.97;;;3.67;;
13343;SDS011;6741;48.964;9.406;2023-05-10T03:45:22;4.57;;;4.17;;
13343;SDS011;6741;48.964;9.406;2023-05-10T03:47:49;4.13;;;3.77;;
13343;SDS011;6741;48.964;9.406;2023-05-10T03:50:16;4.20;;;3.80;;
13343;SDS011;6741;48.964;9.406;2023-05-10T03:52:43;5.07;;;4.63;;
13343;SDS011;6741;48.964;9.406;2023-05-10T03:55:10;4.17;;;3.87;;
13343;SDS011;6741;48.964;9.406;2023-05-10T03:57:37;4.07;;;3.70;;
13343;SDS011;6741;48.964;9.406;2023-05-10T04:00:06;4.47;;;4.07;;
13343;SDS011;6741;48.964;9.406;2023-05-10T04:02:34;3.90;;;3.60;;
13343;SDS011;6741;48.964;9.406;2023-05-10T04:05:01;4.77;;;4.23;;
13343;SDS011;6741;48.964;9.406;2023-05-10T04:07:28;4.60;;;4.20;;
13343;SDS011;6741;48.964;9.406;2023-05-10T04:09:55;5.07;;;4.53;;
13343;SDS011;6741;48.964;9.406;2023-05-10T04:12:22;5.03;;;4.50;;
13343;SDS011;6741;48.964;9.406;2023-05-10T04:14:49;5.87;;;5.37;;
13343;SDS011;6741;48.964;9.406;2023-05-10T04:17:17;5.33;;;4.83;;
13343;SDS011;6741;48.964;9.406;2023-05-10T04:19:44;6.10;;;5.43;;
13343;SDS011;6741;48.964;9.406;2023-05-10T04:22:11;7.13;;;5.90;;
13343;SDS011;6741;48.964;9.406;2023-05-10T04:24:38;6.87;;;5.77;;
13343;SDS011;6741;48.964;9.406;2023-05-10T04:27:05;7.83;;;6.00;;
13343;SDS011;6741;48.964;9.406;2023-05-10T04:29:32;6.13;;;5.53;;
13343;SDS011;6741;48.964;9.406;2023-05-10T04:31:58;5.53;;;5.00;;
13343;SDS011;6741;48.964;9.406;2023-05-10T04:34:27;6.13;;;5.53;;
13343;SDS011;6741;48.964;9.406;2023-05-10T04:36:54;10.60;;;5.93;;
13343;SDS011;6741;48.964;9.406;2023-05-10T04:39:21;6.13;;;5.53;;
13343;SDS011;6741;48.964;9.406;2023-05-10T04:41:48;6.63;;;5.50;;
13343;SDS011;6741;48.964;9.406;2023-05-10T04:44:15;6.17;;;5.43;;
13343;SDS011;6741;48.964;9.406;2023-05-10T04:46:42;6.40;;;5.90;;
13343;SDS011;6741;48.964;9.406;2023-05-10T04:49:09;5.93;;;5.33;;
13343;SDS011;6741;48.964;9.406;2023-05-10T04:51:38;5.83;;;5.23;;
13343;SDS011;6741;48.964;9.406;2023-05-10T04:54:05;6.40;;;5.80;;
13343;SDS011;6741;48.964;9.406;2023-05-10T04:56:32;6.40;;;5.80;;
13343;SDS011;6741;48.964;9.406;2023-05-10T04:58:59;6.40;;;5.90;;
13343;SDS011;6741;48.964;9.406;2023-05-10T05:01:26;6.30;;;5.80;;
13343;SDS011;6741;48.964;9.406;2023-05-10T05:03:53;6.30;;;5.70;;
13343;SDS011;6741;48.964;9.406;2023-05-10T05:06:20;6.17;;;5.67;;
13343;SDS011;6741;48.964;9.406;2023-05-10T05:08:49;5.80;;;5.20;;
13343;SDS011;6741;48.964;9.406;2023-05-10T05:11:16;6.07;;;5.47;;
13343;SDS011;6741;48.964;9.406;2023-05-10T05:13:43;5.83;;;5.33;;
13343;SDS011;6741;48.964;9.406;2023-05-10T05:16:10;6.67;;;6.07;;
13343;SDS011;6741;48.964;9.406;2023-05-10T05:18:37;6.20;;;5.60;;
13343;SDS011;6741;48.964;9.406;2023-05-10T05:21:13;5.97;;;5.27;;
13343;SDS011;6741;48.964;9.406;2023-05-10T05:23:40;6.27;;;5.57;;
13343;SDS011;6741;48.964;9.406;2023-05-10T05:26:08;7.07;;;5.10;;
13343;SDS011;6741;48.964;9.406;2023-05-10T05:28:35;6.27;;;5.67;;
13343;SDS011;6741;48.964;9.406;2023-05-10T05:31:03;7.50;;;6.73;;
13343;SDS011;6741;48.964;9.406;2023-05-10T05:33:34;6.37;;;5.70;;
13343;SDS011;6741;48.964;9.406;2023-05-10T05:36:01;5.97;;;4.93;;
13343;SDS011;6741;48.964;9.406;2023-05-10T05:38:28;4.50;;;4.20;;
13343;SDS011;6741;48.964;9.406;2023-05-10T05:40:55;5.40;;;4.90;;
13343;SDS011;6741;48.964;9.406;2023-05-10T05:43:24;5.30;;;4.80;;
13343;SDS011;6741;48.964;9.406;2023-05-10T05:45:51;6.00;;;4.73;;
13343;SDS011;6741;48.964;9.406;2023-05-10T05:48:19;5.83;;;5.30;;
13343;SDS011;6741;48.964;9.406;2023-05-10T05:50:46;5.63;;;5.13;;
13343;SDS011;6741;48.964;9.406;2023-05-10T05:53:13;6.00;;;4.70;;
13343;SDS011;6741;48.964;9.406;2023-05-10T05:55:40;5.30;;;4.83;;
13343;SDS011;6741;48.964;9.406;2023-05-10T05:58:17;7.03;;;4.47;;
13343;SDS011;6741;48.964;9.406;2023-05-10T06:00:45;5.63;;;4.73;;
13343;SDS011;6741;48.964;9.406;2023-05-10T06:03:12;4.93;;;4.53;;
13343;SDS011;6741;48.964;9.406;2023-05-10T06:05:39;5.50;;;5.00;;
13343;SDS011;6741;48.964;9.406;2023-05-10T06:08:06;4.90;;;4.50;;
13343;SDS011;6741;48.964;9.406;2023-05-10T06:10:33;5.00;;;4.60;;
13343;SDS011;6741;48.964;9.406;2023-05-10T06:13:00;5.00;;;4.60;;
13343;SDS011;6741;48.964;9.406;2023-05-10T06:15:27;4.53;;;4.20;;
13343;SDS011;6741;48.964;9.406;2023-05-10T06:17:55;4.87;;;4.47;;
13343;SDS011;6741;48.964;9.406;2023-05-10T06:20:22;5.20;;;4.70;;
13343;SDS011;6741;48.964;9.406;2023-05-10T06:22:49;6.23;;;4.97;;
13343;SDS011;6741;48.964;9.406;2023-05-10T06:25:16;5.00;;;4.60;;
13343;SDS011;6741;48.964;9.406;2023-05-10T06:27:43;4.40;;;4.10;;
13343;SDS011;6741;48.964;9.406;2023-05-10T06:30:10;4.97;;;4.47;;
13343;SDS011;6741;48.964;9.406;2023-05-10T06:32:40;5.37;;;4.87;;
13343;SDS011;6741;48.964;9.406;2023-05-10T06:35:10;5.23;;;4.80;;
13343;SDS011;6741;48.964;9.406;2023-05-10T06:37:37;5.63;;;5.00;;
13343;SDS011;6741;48.964;9.406;2023-05-10T06:40:05;5.23;;;4.73;;
13343;SDS011;6741;48.964;9.406;2023-05-10T06:42:33;6.03;;;4.83;;
13343;SDS011;6741;48.964;9.406;2023-05-10T06:44:59;5.13;;;4.73;;
13343;SDS011;6741;48.964;9.406;2023-05-10T06:47:27;5.00;;;4.60;;
13343;SDS011;6741;48.964;9.406;2023-05-10T06:49:54;4.87;;;4.47;;
13343;SDS011;6741;48.964;9.406;2023-05-10T06:52:22;5.37;;;4.87;;
13343;SDS011;6741;48.964;9.406;2023-05-10T06:54:49;6.07;;;4.90;;
13343;SDS011;6741;48.964;9.406;2023-05-10T06:57:16;5.20;;;4.53;;
13343;SDS011;6741;48.964;9.406;2023-05-10T06:59:44;4.97;;;4.57;;
13343;SDS011;6741;48.964;9.406;2023-05-10T07:02:11;5.30;;;4.30;;
13343;SDS011;6741;48.964;9.406;2023-05-10T07:04:39;5.33;;;4.83;;
13343;SDS011;6741;48.964;9.406;2023-05-10T07:07:06;6.07;;;5.50;;
13343;SDS011;6741;48.964;9.406;2023-05-10T07:09:35;4.30;;;3.97;;
13343;SDS011;6741;48.964;9.406;2023-05-10T07:12:02;5.60;;;3.63;;
13343;SDS011;6741;48.964;9.406;2023-05-10T07:14:30;4.07;;;3.67;;
13343;SDS011;6741;48.964;9.406;2023-05-10T07:16:57;7.80;;;3.93;;
13343;SDS011;6741;48.964;9.406;2023-05-10T07:19:24;3.60;;;3.30;;
13343;SDS011;6741;48.964;9.406;2023-05-10T07:21:50;3.70;;;3.40;;
13343;SDS011;6741;48.964;9.406;2023-05-10T07:24:17;3.87;;;3.57;;
13343;SDS011;6741;48.964;9.406;2023-05-10T07:26:46;3.80;;;3.50;;
13343;SDS011;6741;48.964;9.406;2023-05-10T07:29:13;4.43;;;3.20;;
13343;SDS011;6741;48.964;9.406;2023-05-10T07:31:39;4.70;;;2.93;;
13343;SDS011;6741;48.964;9.406;2023-05-10T07:34:07;3.50;;;3.20;;
13343;SDS011;6741;48.964;9.406;2023-05-10T07:36:35;3.43;;;3.13;;
13343;SDS011;6741;48.964;9.406;2023-05-10T07:39:02;3.03;;;2.83;;
13343;SDS011;6741;48.964;9.406;2023-05-10T07:41:29;3.37;;;2.70;;
13343;SDS011;6741;48.964;9.406;2023-05-10T07:43:57;3.30;;;2.70;;
13343;SDS011;6741;48.964;9.406;2023-05-10T07:46:24;3.27;;;2.57;;
13343;SDS011;6741;48.964;9.406;2023-05-10T07:48:51;3.57;;;2.63;;
13343;SDS011;6741;48.964;9.406;2023-05-10T07:51:18;3.30;;;3.00;;
13343;SDS011;6741;48.964;9.406;2023-05-10T07:53:44;4.37;;;2.87;;
13343;SDS011;6741;48.964;9.406;2023-05-10T07:56:21;3.13;;;2.70;;
13343;SDS011;6741;48.964;9.406;2023-05-10T07:58:50;2.83;;;2.63;;
13343;SDS011;6741;48.964;9.406;2023-05-10T08:01:18;3.43;;;3.10;;
13343;SDS011;6741;48.964;9.406;2023-05-10T08:03:45;4.07;;;3.00;;
13343;SDS011;6741;48.964;9.406;2023-05-10T08:06:12;3.20;;;2.90;;
13343;SDS011;6741;48.964;9.406;2023-05-10T08:08:40;3.20;;;2.90;;
13343;SDS011;6741;48.964;9.406;2023-05-10T08:11:07;2.47;;;2.27;;
13343;SDS011;6741;48.964;9.406;2023-05-10T08:13:34;2.60;;;2.40;;
13343;SDS011;6741;48.964;9.406;2023-05-10T08:16:01;2.70;;;2.50;;
13343;SDS011;6741;48.964;9.406;2023-05-10T08:18:29;3.07;;;2.77;;
13343;SDS011;6741;48.964;9.406;2023-05-10T08:20:56;2.60;;;2.40;;
13343;SDS011;6741;48.964;9.406;2023-05-10T08:23:23;3.20;;;2.03;;
13343;SDS011;6741;48.964;9.406;2023-05-10T08:25:51;1.97;;;1.87;;
13343;SDS011;6741;48.964;9.406;2023-05-10T08:28:17;1.90;;;1.80;;
13343;SDS011;6741;48.964;9.406;2023-05-10T08:30:44;1.60;;;1.50;;
13343;SDS011;6741;48.964;9.406;2023-05-10T08:33:11;1.80;;;1.70;;
13343;SDS011;6741;48.964;9.406;2023-05-10T08:35:39;1.30;;;1.20;;
13343;SDS011;6741;48.964;9.406;2023-05-10T08:38:06;2.00;;;1.37;;
13343;SDS011;6741;48.964;9.406;2023-05-10T08:40:34;2.27;;;1.60;;
13343;SDS011;6741;48.964;9.406;2023-05-10T08:43:03;1.93;;;1.70;;
13343;SDS011;6741;48.964;9.406;2023-05-10T08:45:33;2.37;;;1.20;;
13343;SDS011;6741;48.964;9.406;2023-05-10T08:48:05;1.20;;;0.97;;
13343;SDS011;6741;48.964;9.406;2023-05-10T08:50:34;1.00;;;1.00;;
13343;SDS011;6741;48.964;9.406;2023-05-10T08:53:05;1.03;;;1.03;;
13343;SDS011;6741;48.964;9.406;2023-05-10T08:55:35;1.00;;;0.80;;
13343;SDS011;6741;48.964;9.406;2023-05-10T08:58:03;0.90;;;0.90;;
13343;SDS011;6741;48.964;9.406;2023-05-10T09:00:30;4.00;;;1.07;;
13343;SDS011;6741;48.964;9.406;2023-05-10T09:02:58;0.77;;;0.77;;
13343;SDS011;6741;48.964;9.406;2023-05-10T09:05:25;0.80;;;0.80;;
13343;SDS011;6741;48.964;9.406;2023-05-10T09:07:53;0.80;;;0.80;;
13343;SDS011;6741;48.964;9.406;2023-05-10T09:10:21;1.30;;;0.80;;
13343;SDS011;6741;48.964;9.406;2023-05-10T09:12:52;1.00;;;0.90;;
13343;SDS011;6741;48.964;9.406;2023-05-10T09:15:22;1.87;;;1.00;;
13343;SDS011;6741;48.964;9.406;2023-05-10T09:17:49;1.33;;;0.70;;
13343;SDS011;6741;48.964;9.406;2023-05-10T09:20:16;1.43;;;0.90;;
13343;SDS011;6741;48.964;9.406;2023-05-10T09:22:43;1.95;;;0.70;;
13343;SDS011;6741;48.964;9.406;2023-05-10T09:25:11;0.80;;;0.80;;
13343;SDS011;6741;48.964;9.406;2023-05-10T09:27:41;3.47;;;0.90;;
13343;SDS011;6741;48.964;9.406;2023-05-10T09:30:14;1.95;;;0.90;;
13343;SDS011;6741;48.964;9.406;2023-05-10T09:32:44;0.60;;;0.60;;
13343;SDS011;6741;48.964;9.406;2023-05-10T09:35:12;3.43;;;0.70;;
13343;SDS011;6741;48.964;9.406;2023-05-10T09:37:40;0.93;;;0.83;;
13343;SDS011;6741;48.964;9.406;2023-05-10T09:40:11;0.90;;;0.87;;
13343;SDS011;6741;48.964;9.406;2023-05-10T09:42:41;0.83;;;0.83;;
13343;SDS011;6741;48.964;9.406;2023-05-10T09:45:16;0.80;;;0.80;;
13343;SDS011;6741;48.964;9.406;2023-05-10T09:47:43;1.50;;;0.90;;
13343;SDS011;6741;48.964;9.406;2023-05-10T09:50:11;0.90;;;0.90;;
13343;SDS011;6741;48.964;9.406;2023-05-10T09:52:45;1.00;;;1.00;;
13343;SDS011;6741;48.964;9.406;2023-05-10T09:55:14;1.53;;;0.80;;
13343;SDS011;6741;48.964;9.406;2023-05-10T09:57:43;0.70;;;0.70;;
13343;SDS011;6741;48.964;9.406;2023-05-10T10:00:10;0.83;;;0.77;;
13343;SDS011;6741;48.964;9.406;2023-05-10T10:02:44;1.50;;;0.60;;
13343;SDS011;6741;48.964;9.406;2023-05-10T10:05:12;1.70;;;0.80;;
13343;SDS011;6741;48.964;9.406;2023-05-10T10:07:39;0.63;;;0.63;;
13343;SDS011;6741;48.964;9.406;2023-05-10T10:10:07;2.70;;;0.80;;
13343;SDS011;6741;48.964;9.406;2023-05-10T10:12:37;0.70;;;0.70;;
13343;SDS011;6741;48.964;9.406;2023-05-10T10:15:07;1.23;;;0.83;;
13343;SDS011;6741;48.964;9.406;2023-05-10T10:17:35;1.60;;;0.90;;
13343;SDS011;6741;48.964;9.406;2023-05-10T10:20:04;1.00;;;0.90;;
13343;SDS011;6741;48.964;9.406;2023-05-10T10:22:32;1.40;;;0.90;;
13343;SDS011;6741;48.964;9.406;2023-05-10T10:24:59;1.23;;;1.13;;
13343;SDS011;6741;48.964;9.406;2023-05-10T10:27:28;2.38;;;0.90;;
13343;SDS011;6741;48.964;9.406;2023-05-10T10:30:04;1.00;;;1.00;;
13343;SDS011;6741;48.964;9.406;2023-05-10T10:32:44;1.00;;;0.90;;
13343;SDS011;6741;48.964;9.406;2023-05-10T10:35:23;1.55;;;1.00;;
13343;SDS011;6741;48.964;9.406;2023-05-10T10:37:50;0.80;;;0.80;;
13343;SDS011;6741;48.964;9.406;2023-05-10T10:40:27;0.90;;;0.90;;
13343;SDS011;6741;48.964;9.406;2023-05-10T10:42:55;1.67;;;0.77;;
13343;SDS011;6741;48.964;9.406;2023-05-10T10:45:24;1.25;;;1.00;;
13343;SDS011;6741;48.964;9.406;2023-05-10T10:47:56;0.68;;;0.68;;
13343;SDS011;6741;48.964;9.406;2023-05-10T10:50:46;0.35;;;0.35;;
13343;SDS011;6741;48.964;9.406;2023-05-10T10:53:13;0.77;;;0.52;;
13343;SDS011;6741;48.964;9.406;2023-05-10T10:55:45;1.00;;;0.88;;
13343;SDS011;6741;48.964;9.406;2023-05-10T10:58:28;0.82;;;0.75;;
13343;SDS011;6741;48.964;9.406;2023-05-10T11:01:10;1.65;;;0.82;;
13343;SDS011;6741;48.964;9.406;2023-05-10T11:03:40;0.88;;;0.88;;
13343;SDS011;6741;48.964;9.406;2023-05-10T11:06:28;1.38;;;0.90;;
13343;SDS011;6741;48.964;9.406;2023-05-10T11:08:56;2.30;;;1.13;;
13343;SDS011;6741;48.964;9.406;2023-05-10T11:11:23;1.00;;;1.00;;
13343;SDS011;6741;48.964;9.406;2023-05-10T11:13:50;1.65;;;0.70;;
13343;SDS011;6741;48.964;9.406;2023-05-10T11:16:19;0.75;;;0.75;;
13343;SDS011;6741;48.964;9.406;2023-05-10T11:18:51;3.97;;;0.90;;
13343;SDS011;6741;48.964;9.406;2023-05-10T11:21:27;1.30;;;1.00;;
13343;SDS011;6741;48.964;9.406;2023-05-10T11:23:55;0.98;;;0.77;;
13343;SDS011;6741;48.964;9.406;2023-05-10T11:26:23;1.00;;;1.00;;
13343;SDS011;6741;48.964;9.406;2023-05-10T11:28:52;0.93;;;0.93;;
13343;SDS011;6741;48.964;9.406;2023-05-10T11:31:22;0.73;;;0.73;;
13343;SDS011;6741;48.964;9.406;2023-05-10T11:33:52;1.85;;;0.98;;
13343;SDS011;6741;48.964;9.406;2023-05-10T11:36:21;2.00;;;0.90;;
13343;SDS011;6741;48.964;9.406;2023-05-10T11:38:50;2.37;;;1.00;;
13343;SDS011;6741;48.964;9.406;2023-05-10T11:41:18;1.00;;;0.90;;
13343;SDS011;6741;48.964;9.406;2023-05-10T11:43:47;0.80;;;0.80;;
13343;SDS011;6741;48.964;9.406;2023-05-10T11:46:17;2.47;;;1.20;;
13343;SDS011;6741;48.964;9.406;2023-05-10T11:48:48;2.83;;;0.90;;
13343;SDS011;6741;48.964;9.406;2023-05-10T11:51:19;0.77;;;0.77;;
13343;SDS011;6741;48.964;9.406;2023-05-10T11:53:48;0.77;;;0.70;;
13343;SDS011;6741;48.964;9.406;2023-05-10T11:56:17;0.40;;;0.40;;
13343;SDS011;6741;48.964;9.406;2023-05-10T11:58:49;1.08;;;0.95;;
13343;SDS011;6741;48.964;9.406;2023-05-10T12:01:20;1.00;;;1.00;;
13343;SDS011;6741;48.964;9.406;2023-05-10T12:03:49;2.50;;;0.90;;
13343;SDS011;6741;48.964;9.406;2023-05-10T12:06:17;1.73;;;0.85;;
13343;SDS011;6741;48.964;9.406;2023-05-10T12:08:45;0.82;;;0.82;;
13343;SDS011;6741;48.964;9.406;2023-05-10T12:11:17;2.05;;;1.25;;
13343;SDS011;6741;48.964;9.406;2023-05-10T12:13:46;1.85;;;1.02;;
13343;SDS011;6741;48.964;9.406;2023-05-10T12:16:15;1.83;;;1.05;;
13343;SDS011;6741;48.964;9.406;2023-05-10T12:18:43;1.33;;;0.80;;
13343;SDS011;6741;48.964;9.406;2023-05-10T12:21:12;1.17;;;1.10;;
13343;SDS011;6741;48.964;9.406;2023-05-10T12:23:39;1.05;;;0.80;;
13343;SDS011;6741;48.964;9.406;2023-05-10T12:26:08;2.45;;;0.90;;
13343;SDS011;6741;48.964;9.406;2023-05-10T12:28:35;1.73;;;0.85;;
13343;SDS011;6741;48.964;9.406;2023-05-10T12:31:03;2.08;;;1.15;;
13343;SDS011;6741;48.964;9.406;2023-05-10T12:33:37;1.15;;;1.05;;
13343;SDS011;6741;48.964;9.406;2023-05-10T12:36:06;1.80;;;1.00;;
13343;SDS011;6741;48.964;9.406;2023-05-10T12:38:36;1.30;;;1.20;;
13343;SDS011;6741;48.964;9.406;2023-05-10T12:41:04;2.55;;;1.25;;
13343;SDS011;6741;48.964;9.406;2023-05-10T12:43:32;2.15;;;1.63;;
13343;SDS011;6741;48.964;9.406;2023-05-10T12:46:04;2.00;;;1.17;;
13343;SDS011;6741;48.964;9.406;2023-05-10T12:48:32;2.35;;;1.52;;
13343;SDS011;6741;48.964;9.406;2023-05-10T12:51:00;1.55;;;1.45;;
13343;SDS011;6741;48.964;9.406;2023-05-10T12:53:27;2.85;;;1.90;;
13343;SDS011;6741;48.964;9.406;2023-05-10T12:55:55;1.50;;;1.40;;
13343;SDS011;6741;48.964;9.406;2023-05-10T12:58:23;2.92;;;1.80;;
13343;SDS011;6741;48.964;9.406;2023-05-10T13:00:51;2.20;;;1.85;;
13343;SDS011;6741;48.964;9.406;2023-05-10T13:03:18;2.15;;;1.77;;
13343;SDS011;6741;48.964;9.406;2023-05-10T13:05:46;1.60;;;1.50;;
13343;SDS011;6741;48.964;9.406;2023-05-10T13:08:13;2.65;;;1.27;;
13343;SDS011;6741;48.964;9.406;2023-05-10T13:10:41;2.53;;;1.45;;
13343;SDS011;6741;48.964;9.406;2023-05-10T13:13:09;3.50;;;1.35;;
13343;SDS011;6741;48.964;9.406;2023-05-10T13:15:36;2.92;;;1.13;;
13343;SDS011;6741;48.964;9.406;2023-05-10T13:18:03;1.58;;;1.10;;
13343;SDS011;6741;48.964;9.406;2023-05-10T13:20:30;4.70;;;2.42;;
13343;SDS011;6741;48.964;9.406;2023-05-10T13:22:57;1.00;;;1.00;;
13343;SDS011;6741;48.964;9.406;2023-05-10T13:25:24;1.10;;;0.98;;
13343;SDS011;6741;48.964;9.406;2023-05-10T13:27:51;0.90;;;0.90;;
13343;SDS011;6741;48.964;9.406;2023-05-10T13:30:20;1.27;;;1.13;;
13343;SDS011;6741;48.964;9.406;2023-05-10T13:32:48;2.85;;;1.05;;
13343;SDS011;6741;48.964;9.406;2023-05-10T13:35:16;1.15;;;0.93;;
13343;SDS011;6741;48.964;9.406;2023-05-10T13:44:01;0.82;;;0.80;;
13343;SDS011;6741;48.964;9.406;2023-05-10T13:46:31;1.75;;;0.98;;
13343;SDS011;6741;48.964;9.406;2023-05-10T13:49:03;3.50;;;1.08;;
13343;SDS011;6741;48.964;9.406;2023-05-10T13:51:30;2.67;;;1.00;;
13343;SDS011;6741;48.964;9.406;2023-05-10T13:53:57;1.30;;;1.20;;
13343;SDS011;6741;48.964;9.406;2023-05-10T13:56:25;1.25;;;0.93;;
13343;SDS011;6741;48.964;9.406;2023-05-10T13:58:59;0.75;;;0.75;;
13343;SDS011;6741;48.964;9.406;2023-05-10T14:01:31;2.92;;;0.98;;
13343;SDS011;6741;48.964;9.406;2023-05-10T14:04:00;1.13;;;1.00;;
13343;SDS011;6741;48.964;9.406;2023-05-10T14:06:28;1.42;;;0.98;;
13343;SDS011;6741;48.964;9.406;2023-05-10T14:08:56;1.10;;;0.90;;
13343;SDS011;6741;48.964;9.406;2023-05-10T14:11:24;1.77;;;1.10;;
13343;SDS011;6741;48.964;9.406;2023-05-10T14:13:53;2.83;;;1.00;;
13343;SDS011;6741;48.964;9.406;2023-05-10T14:16:22;3.47;;;1.02;;
13343;SDS011;6741;48.964;9.406;2023-05-10T14:18:52;2.20;;;0.90;;
13343;SDS011;6741;48.964;9.406;2023-05-10T14:21:20;1.70;;;1.02;;
13343;SDS011;6741;48.964;9.406;2023-05-10T14:23:49;2.03;;;1.15;;
13343;SDS011;6741;48.964;9.406;2023-05-10T14:26:17;2.05;;;0.80;;
13343;SDS011;6741;48.964;9.406;2023-05-10T14:28:45;1.42;;;0.85;;
13343;SDS011;6741;48.964;9.406;2023-05-10T14:31:16;1.10;;;0.88;;
13343;SDS011;6741;48.964;9.406;2023-05-10T14:33:45;2.33;;;1.15;;
13343;SDS011;6741;48.964;9.406;2023-05-10T14:36:15;2.30;;;1.38;;
13343;SDS011;6741;48.964;9.406;2023-05-10T14:38:44;2.00;;;1.90;;
13343;SDS011;6741;48.964;9.406;2023-05-10T14:41:13;2.40;;;1.75;;
13343;SDS011;6741;48.964;9.406;2023-05-10T14:43:41;3.67;;;1.20;;
13343;SDS011;6741;48.964;9.406;2023-05-10T14:46:11;2.08;;;1.10;;
13343;SDS011;6741;48.964;9.406;2023-05-10T14:48:41;1.05;;;0.93;;
13343;SDS011;6741;48.964;9.406;2023-05-10T14:51:09;1.10;;;1.00;;
13343;SDS011;6741;48.964;9.406;2023-05-10T14:53:39;2.40;;;1.20;;
13343;SDS011;6741;48.964;9.406;2023-05-10T14:56:07;1.10;;;1.10;;
13343;SDS011;6741;48.964;9.406;2023-05-10T14:58:34;3.45;;;1.25;;
13343;SDS011;6741;48.964;9.406;2023-05-10T15:01:02;1.17;;;0.90;;
13343;SDS011;6741;48.964;9.406;2023-05-10T15:03:32;2.25;;;1.00;;
13343;SDS011;6741;48.964;9.406;2023-05-10T15:06:04;1.08;;;1.05;;
13343;SDS011;6741;48.964;9.406;2023-05-10T15:08:33;1.85;;;0.93;;
13343;SDS011;6741;48.964;9.406;2023-05-10T15:11:02;1.00;;;0.73;;
13343;SDS011;6741;48.964;9.406;2023-05-10T15:13:30;0.80;;;0.80;;
13343;SDS011;6741;48.964;9.406;2023-05-10T15:15:57;1.98;;;1.10;;
13343;SDS011;6741;48.964;9.406;2023-05-10T15:18:25;1.17;;;0.90;;
13343;SDS011;6741;48.964;9.406;2023-05-10T15:20:54;1.83;;;0.95;;